KFCS/FCS METAR and TAF weather

Enter ICAO airport designator
Station Type Date Time Source
KFCS METAR 2021/09/28 03:58 UTC NOAA

KFCS 280358Z AUTO 13003KT 10SM CLR 17/03 A3000 RMK AO2 SLP097 T01730025 $


Station Type Date Time Source
KFCS Decoded METAR 2021/09/28 03:58 UTC NOAA

Fort Carson, CO, United States (KFCS) 38-42N 104-46W 1789M
Sep 27, 2021 - 11:58 PM EDT / 2021.09.28 0358 UTC
Wind: from the SE (130 degrees) at 3 MPH (3 KT):0
Visibility: 10 mile(s):0
Sky conditions: clear
Temperature: 63.1 F (17.3 C)
Dew Point: 36.5 F (2.5 C)
Relative Humidity: 37%
Pressure (altimeter): 30 in. Hg (1015 hPa)
ob: KFCS 280358Z AUTO 13003KT 10SM CLR 17/03 A3000 RMK AO2 SLP097 T01730025
cycle: 4

Station Type Date Time Source
KFCS TAF 2021/09/27 21:15 UTC NOAA

TAF TAF KFCS 272109Z 2721/2903 09015G25KT 9999 VCSH BKN120 QNH2999INS
BECMG 2802/2803 09010KT 9999 NSW BKN090 QNH2998INS
BECMG 2807/2808 35005KT 9999 BKN100 QNH2997INS
BECMG 2815/2816 15012G18KT 9999 SCT120 QNH2989INS TX31/2721Z TN09/2813Z

Example: see airport list